sensor_id;sensor_type;location;lat;lon;timestamp;P1;durP1;ratioP1;P2;durP2;ratioP2
51304;SDS011;37392;50.964;6.952;2022-10-31T00:00:45;24.55;;;10.45;;
51304;SDS011;37392;50.964;6.952;2022-10-31T00:03:12;18.75;;;9.70;;
51304;SDS011;37392;50.964;6.952;2022-10-31T00:05:41;34.00;;;11.68;;
51304;SDS011;37392;50.964;6.952;2022-10-31T00:08:11;30.35;;;11.93;;
51304;SDS011;37392;50.964;6.952;2022-10-31T00:10:37;26.38;;;11.23;;
51304;SDS011;37392;50.964;6.952;2022-10-31T00:13:04;23.13;;;10.43;;
51304;SDS011;37392;50.964;6.952;2022-10-31T00:15:32;21.75;;;11.40;;
51304;SDS011;37392;50.964;6.952;2022-10-31T00:18:00;26.08;;;10.55;;
51304;SDS011;37392;50.964;6.952;2022-10-31T00:20:26;26.25;;;10.20;;
51304;SDS011;37392;50.964;6.952;2022-10-31T00:22:52;28.65;;;9.85;;
51304;SDS011;37392;50.964;6.952;2022-10-31T00:25:18;25.15;;;10.55;;
51304;SDS011;37392;50.964;6.952;2022-10-31T00:27:45;31.95;;;11.32;;
51304;SDS011;37392;50.964;6.952;2022-10-31T00:30:13;30.58;;;9.80;;
51304;SDS011;37392;50.964;6.952;2022-10-31T00:32:42;21.55;;;11.07;;
51304;SDS011;37392;50.964;6.952;2022-10-31T00:35:07;26.05;;;10.18;;
51304;SDS011;37392;50.964;6.952;2022-10-31T00:37:33;31.55;;;13.27;;
51304;SDS011;37392;50.964;6.952;2022-10-31T00:39:59;27.17;;;10.55;;
51304;SDS011;37392;50.964;6.952;2022-10-31T00:42:24;27.65;;;11.13;;
51304;SDS011;37392;50.964;6.952;2022-10-31T00:44:50;30.88;;;10.65;;
51304;SDS011;37392;50.964;6.952;2022-10-31T00:47:15;24.00;;;9.43;;
51304;SDS011;37392;50.964;6.952;2022-10-31T00:49:41;20.13;;;9.98;;
51304;SDS011;37392;50.964;6.952;2022-10-31T00:52:07;27.67;;;9.05;;
51304;SDS011;37392;50.964;6.952;2022-10-31T00:54:32;21.83;;;9.38;;
51304;SDS011;37392;50.964;6.952;2022-10-31T00:56:58;23.23;;;10.27;;
51304;SDS011;37392;50.964;6.952;2022-10-31T00:59:23;30.48;;;10.18;;
51304;SDS011;37392;50.964;6.952;2022-10-31T01:01:49;20.58;;;8.95;;
51304;SDS011;37392;50.964;6.952;2022-10-31T01:04:14;20.98;;;11.07;;
51304;SDS011;37392;50.964;6.952;2022-10-31T01:06:40;29.45;;;10.50;;
51304;SDS011;37392;50.964;6.952;2022-10-31T01:09:07;31.33;;;11.23;;
51304;SDS011;37392;50.964;6.952;2022-10-31T01:11:32;35.78;;;10.70;;
51304;SDS011;37392;50.964;6.952;2022-10-31T01:13:58;25.25;;;9.45;;
51304;SDS011;37392;50.964;6.952;2022-10-31T01:16:24;22.67;;;9.63;;
51304;SDS011;37392;50.964;6.952;2022-10-31T01:18:52;20.48;;;10.23;;
51304;SDS011;37392;50.964;6.952;2022-10-31T01:21:21;33.08;;;11.13;;
51304;SDS011;37392;50.964;6.952;2022-10-31T01:23:50;21.17;;;10.13;;
51304;SDS011;37392;50.964;6.952;2022-10-31T01:26:19;33.42;;;10.60;;
51304;SDS011;37392;50.964;6.952;2022-10-31T01:29:00;24.80;;;10.07;;
51304;SDS011;37392;50.964;6.952;2022-10-31T01:31:30;18.88;;;9.60;;
51304;SDS011;37392;50.964;6.952;2022-10-31T01:34:01;22.30;;;9.27;;
51304;SDS011;37392;50.964;6.952;2022-10-31T01:36:28;27.30;;;9.98;;
51304;SDS011;37392;50.964;6.952;2022-10-31T01:38:57;30.27;;;10.23;;
51304;SDS011;37392;50.964;6.952;2022-10-31T01:41:27;23.23;;;9.05;;
51304;SDS011;37392;50.964;6.952;2022-10-31T01:43:56;24.02;;;9.52;;
51304;SDS011;37392;50.964;6.952;2022-10-31T01:46:29;33.22;;;9.55;;
51304;SDS011;37392;50.964;6.952;2022-10-31T01:49:00;19.58;;;9.60;;
51304;SDS011;37392;50.964;6.952;2022-10-31T01:51:35;18.70;;;9.50;;
51304;SDS011;37392;50.964;6.952;2022-10-31T01:54:06;28.13;;;10.43;;
51304;SDS011;37392;50.964;6.952;2022-10-31T01:56:38;23.48;;;12.38;;
51304;SDS011;37392;50.964;6.952;2022-10-31T01:59:07;24.33;;;10.30;;
51304;SDS011;37392;50.964;6.952;2022-10-31T02:01:36;22.88;;;9.23;;
51304;SDS011;37392;50.964;6.952;2022-10-31T02:04:03;22.55;;;10.10;;
51304;SDS011;37392;50.964;6.952;2022-10-31T02:09:19;17.38;;;8.57;;
51304;SDS011;37392;50.964;6.952;2022-10-31T02:11:49;22.98;;;10.32;;
51304;SDS011;37392;50.964;6.952;2022-10-31T02:14:17;23.50;;;9.68;;
51304;SDS011;37392;50.964;6.952;2022-10-31T02:16:46;22.77;;;9.50;;
51304;SDS011;37392;50.964;6.952;2022-10-31T02:19:13;20.23;;;9.98;;
51304;SDS011;37392;50.964;6.952;2022-10-31T02:28:18;25.48;;;9.30;;
51304;SDS011;37392;50.964;6.952;2022-10-31T02:33:53;23.80;;;9.40;;
51304;SDS011;37392;50.964;6.952;2022-10-31T02:36:52;17.20;;;8.73;;
51304;SDS011;37392;50.964;6.952;2022-10-31T02:39:25;17.98;;;9.77;;
51304;SDS011;37392;50.964;6.952;2022-10-31T02:45:53;20.70;;;9.18;;
51304;SDS011;37392;50.964;6.952;2022-10-31T02:49:02;24.30;;;9.10;;
51304;SDS011;37392;50.964;6.952;2022-10-31T02:51:39;23.13;;;10.02;;
51304;SDS011;37392;50.964;6.952;2022-10-31T02:54:04;19.25;;;9.55;;
51304;SDS011;37392;50.964;6.952;2022-10-31T02:56:30;23.33;;;9.57;;
51304;SDS011;37392;50.964;6.952;2022-10-31T02:58:57;18.95;;;9.32;;
51304;SDS011;37392;50.964;6.952;2022-10-31T03:07:28;24.88;;;11.00;;
51304;SDS011;37392;50.964;6.952;2022-10-31T03:10:28;23.10;;;9.98;;
51304;SDS011;37392;50.964;6.952;2022-10-31T03:13:28;26.10;;;10.02;;
51304;SDS011;37392;50.964;6.952;2022-10-31T03:16:23;32.67;;;9.95;;
51304;SDS011;37392;50.964;6.952;2022-10-31T03:18:57;16.98;;;9.30;;
51304;SDS011;37392;50.964;6.952;2022-10-31T03:24:02;19.13;;;8.95;;
51304;SDS011;37392;50.964;6.952;2022-10-31T03:26:31;23.98;;;9.77;;
51304;SDS011;37392;50.964;6.952;2022-10-31T03:29:02;22.77;;;9.73;;
51304;SDS011;37392;50.964;6.952;2022-10-31T03:31:33;26.65;;;10.43;;
51304;SDS011;37392;50.964;6.952;2022-10-31T03:34:08;21.88;;;9.93;;
51304;SDS011;37392;50.964;6.952;2022-10-31T03:36:35;20.88;;;9.05;;
51304;SDS011;37392;50.964;6.952;2022-10-31T03:39:04;27.88;;;9.38;;
51304;SDS011;37392;50.964;6.952;2022-10-31T03:41:34;19.02;;;8.68;;
51304;SDS011;37392;50.964;6.952;2022-10-31T03:44:08;22.30;;;9.90;;
51304;SDS011;37392;50.964;6.952;2022-10-31T03:46:42;20.23;;;9.73;;
51304;SDS011;37392;50.964;6.952;2022-10-31T03:49:09;21.83;;;9.63;;
51304;SDS011;37392;50.964;6.952;2022-10-31T03:54:34;28.38;;;9.40;;
51304;SDS011;37392;50.964;6.952;2022-10-31T03:59:42;25.70;;;10.85;;
51304;SDS011;37392;50.964;6.952;2022-10-31T04:02:15;25.30;;;10.07;;
51304;SDS011;37392;50.964;6.952;2022-10-31T04:04:44;22.90;;;10.10;;
51304;SDS011;37392;50.964;6.952;2022-10-31T04:07:11;25.08;;;9.23;;
51304;SDS011;37392;50.964;6.952;2022-10-31T04:09:39;24.98;;;9.77;;
51304;SDS011;37392;50.964;6.952;2022-10-31T04:12:09;37.17;;;9.25;;
51304;SDS011;37392;50.964;6.952;2022-10-31T04:14:40;19.63;;;9.45;;
51304;SDS011;37392;50.964;6.952;2022-10-31T04:17:09;32.40;;;10.60;;
51304;SDS011;37392;50.964;6.952;2022-10-31T04:19:38;27.83;;;10.67;;
51304;SDS011;37392;50.964;6.952;2022-10-31T04:22:04;29.02;;;9.07;;
51304;SDS011;37392;50.964;6.952;2022-10-31T04:24:30;44.33;;;10.35;;
51304;SDS011;37392;50.964;6.952;2022-10-31T04:26:55;25.77;;;9.32;;
51304;SDS011;37392;50.964;6.952;2022-10-31T04:29:22;24.90;;;10.77;;
51304;SDS011;37392;50.964;6.952;2022-10-31T04:31:49;19.80;;;8.52;;
51304;SDS011;37392;50.964;6.952;2022-10-31T04:34:14;21.38;;;9.75;;
51304;SDS011;37392;50.964;6.952;2022-10-31T04:36:40;22.05;;;8.65;;
51304;SDS011;37392;50.964;6.952;2022-10-31T04:39:06;24.05;;;10.13;;
51304;SDS011;37392;50.964;6.952;2022-10-31T04:41:31;25.85;;;10.52;;
51304;SDS011;37392;50.964;6.952;2022-10-31T04:43:57;23.77;;;10.23;;
51304;SDS011;37392;50.964;6.952;2022-10-31T04:46:22;26.17;;;9.00;;
51304;SDS011;37392;50.964;6.952;2022-10-31T04:48:48;19.88;;;9.68;;
51304;SDS011;37392;50.964;6.952;2022-10-31T04:51:14;21.80;;;9.98;;
51304;SDS011;37392;50.964;6.952;2022-10-31T04:53:39;13.95;;;8.63;;
51304;SDS011;37392;50.964;6.952;2022-10-31T04:56:05;21.15;;;8.55;;
51304;SDS011;37392;50.964;6.952;2022-10-31T04:58:31;27.00;;;11.25;;
51304;SDS011;37392;50.964;6.952;2022-10-31T05:00:56;23.15;;;9.45;;
51304;SDS011;37392;50.964;6.952;2022-10-31T05:03:22;20.00;;;9.52;;
51304;SDS011;37392;50.964;6.952;2022-10-31T05:05:48;19.92;;;9.77;;
51304;SDS011;37392;50.964;6.952;2022-10-31T05:08:14;23.65;;;8.88;;
51304;SDS011;37392;50.964;6.952;2022-10-31T05:10:40;23.10;;;9.32;;
51304;SDS011;37392;50.964;6.952;2022-10-31T05:13:05;18.17;;;8.82;;
51304;SDS011;37392;50.964;6.952;2022-10-31T05:15:32;22.90;;;9.35;;
51304;SDS011;37392;50.964;6.952;2022-10-31T05:17:58;25.95;;;8.77;;
51304;SDS011;37392;50.964;6.952;2022-10-31T05:20:25;25.75;;;8.85;;
51304;SDS011;37392;50.964;6.952;2022-10-31T05:22:55;17.92;;;8.40;;
51304;SDS011;37392;50.964;6.952;2022-10-31T05:25:22;33.92;;;9.38;;
51304;SDS011;37392;50.964;6.952;2022-10-31T05:27:51;18.52;;;9.20;;
51304;SDS011;37392;50.964;6.952;2022-10-31T05:30:19;17.63;;;8.95;;
51304;SDS011;37392;50.964;6.952;2022-10-31T05:32:54;23.50;;;8.65;;
51304;SDS011;37392;50.964;6.952;2022-10-31T05:35:21;19.65;;;9.05;;
51304;SDS011;37392;50.964;6.952;2022-10-31T05:37:50;23.65;;;9.75;;
51304;SDS011;37392;50.964;6.952;2022-10-31T05:40:16;27.17;;;11.18;;
51304;SDS011;37392;50.964;6.952;2022-10-31T05:42:44;19.70;;;9.05;;
51304;SDS011;37392;50.964;6.952;2022-10-31T05:45:10;28.35;;;10.82;;
51304;SDS011;37392;50.964;6.952;2022-10-31T05:47:39;15.63;;;8.90;;
51304;SDS011;37392;50.964;6.952;2022-10-31T05:50:05;18.75;;;10.48;;
51304;SDS011;37392;50.964;6.952;2022-10-31T05:52:32;25.60;;;9.88;;
51304;SDS011;37392;50.964;6.952;2022-10-31T05:54:57;19.33;;;8.30;;
51304;SDS011;37392;50.964;6.952;2022-10-31T05:57:23;32.38;;;10.45;;
51304;SDS011;37392;50.964;6.952;2022-10-31T05:59:49;23.80;;;10.18;;
51304;SDS011;37392;50.964;6.952;2022-10-31T06:02:22;25.52;;;10.52;;
51304;SDS011;37392;50.964;6.952;2022-10-31T06:07:13;16.08;;;9.00;;
51304;SDS011;37392;50.964;6.952;2022-10-31T06:09:39;19.63;;;9.02;;
51304;SDS011;37392;50.964;6.952;2022-10-31T06:12:05;19.33;;;9.73;;
51304;SDS011;37392;50.964;6.952;2022-10-31T06:14:30;26.55;;;9.52;;
51304;SDS011;37392;50.964;6.952;2022-10-31T06:16:56;27.08;;;9.88;;
51304;SDS011;37392;50.964;6.952;2022-10-31T06:19:21;15.77;;;8.20;;
51304;SDS011;37392;50.964;6.952;2022-10-31T06:21:47;32.63;;;10.25;;
51304;SDS011;37392;50.964;6.952;2022-10-31T06:24:12;19.05;;;11.45;;
51304;SDS011;37392;50.964;6.952;2022-10-31T06:26:39;23.00;;;10.05;;
51304;SDS011;37392;50.964;6.952;2022-10-31T06:29:05;29.45;;;10.30;;
51304;SDS011;37392;50.964;6.952;2022-10-31T06:31:31;36.80;;;10.35;;
51304;SDS011;37392;50.964;6.952;2022-10-31T06:33:56;28.38;;;9.80;;
51304;SDS011;37392;50.964;6.952;2022-10-31T06:36:22;28.88;;;10.10;;
51304;SDS011;37392;50.964;6.952;2022-10-31T06:38:48;24.67;;;10.38;;
51304;SDS011;37392;50.964;6.952;2022-10-31T06:41:13;27.55;;;11.02;;
51304;SDS011;37392;50.964;6.952;2022-10-31T06:43:39;22.85;;;10.45;;
51304;SDS011;37392;50.964;6.952;2022-10-31T06:46:04;26.65;;;10.60;;
51304;SDS011;37392;50.964;6.952;2022-10-31T06:48:31;19.48;;;9.65;;
51304;SDS011;37392;50.964;6.952;2022-10-31T06:51:00;28.30;;;11.48;;
51304;SDS011;37392;50.964;6.952;2022-10-31T06:53:27;28.58;;;10.18;;
51304;SDS011;37392;50.964;6.952;2022-10-31T06:55:56;32.47;;;11.43;;
51304;SDS011;37392;50.964;6.952;2022-10-31T06:58:22;25.67;;;11.48;;
51304;SDS011;37392;50.964;6.952;2022-10-31T07:00:48;23.30;;;10.13;;
51304;SDS011;37392;50.964;6.952;2022-10-31T07:03:14;35.13;;;10.57;;
51304;SDS011;37392;50.964;6.952;2022-10-31T07:05:40;30.73;;;10.10;;
51304;SDS011;37392;50.964;6.952;2022-10-31T07:08:10;20.05;;;8.52;;
51304;SDS011;37392;50.964;6.952;2022-10-31T07:10:38;19.38;;;8.80;;
51304;SDS011;37392;50.964;6.952;2022-10-31T07:13:06;29.70;;;10.13;;
51304;SDS011;37392;50.964;6.952;2022-10-31T07:15:37;20.80;;;9.30;;
51304;SDS011;37392;50.964;6.952;2022-10-31T07:18:07;22.58;;;10.02;;
51304;SDS011;37392;50.964;6.952;2022-10-31T07:20:35;28.00;;;9.73;;
51304;SDS011;37392;50.964;6.952;2022-10-31T07:23:01;18.27;;;9.45;;
51304;SDS011;37392;50.964;6.952;2022-10-31T07:25:26;30.80;;;9.60;;
51304;SDS011;37392;50.964;6.952;2022-10-31T07:27:52;21.52;;;9.75;;
51304;SDS011;37392;50.964;6.952;2022-10-31T07:30:18;20.80;;;8.32;;
51304;SDS011;37392;50.964;6.952;2022-10-31T07:32:45;24.63;;;9.10;;
51304;SDS011;37392;50.964;6.952;2022-10-31T07:35:14;23.40;;;8.77;;
51304;SDS011;37392;50.964;6.952;2022-10-31T07:37:43;28.10;;;9.38;;
51304;SDS011;37392;50.964;6.952;2022-10-31T07:40:08;30.77;;;9.27;;
51304;SDS011;37392;50.964;6.952;2022-10-31T07:42:35;20.20;;;8.73;;
51304;SDS011;37392;50.964;6.952;2022-10-31T07:45:05;24.35;;;9.45;;
51304;SDS011;37392;50.964;6.952;2022-10-31T07:47:40;23.38;;;10.40;;
51304;SDS011;37392;50.964;6.952;2022-10-31T07:50:14;29.73;;;10.88;;
51304;SDS011;37392;50.964;6.952;2022-10-31T07:52:46;22.92;;;10.40;;
51304;SDS011;37392;50.964;6.952;2022-10-31T07:55:12;20.15;;;8.70;;
51304;SDS011;37392;50.964;6.952;2022-10-31T07:57:38;17.52;;;8.52;;
51304;SDS011;37392;50.964;6.952;2022-10-31T08:00:08;22.25;;;8.77;;
51304;SDS011;37392;50.964;6.952;2022-10-31T08:02:35;21.35;;;9.30;;
51304;SDS011;37392;50.964;6.952;2022-10-31T08:05:00;17.15;;;9.30;;
51304;SDS011;37392;50.964;6.952;2022-10-31T08:07:29;35.75;;;9.43;;
51304;SDS011;37392;50.964;6.952;2022-10-31T08:10:00;28.17;;;10.32;;
51304;SDS011;37392;50.964;6.952;2022-10-31T08:12:26;28.42;;;9.75;;
51304;SDS011;37392;50.964;6.952;2022-10-31T08:14:52;28.10;;;9.45;;
51304;SDS011;37392;50.964;6.952;2022-10-31T08:17:17;27.02;;;9.85;;
51304;SDS011;37392;50.964;6.952;2022-10-31T08:19:43;30.17;;;12.02;;
51304;SDS011;37392;50.964;6.952;2022-10-31T08:22:08;28.80;;;10.77;;
51304;SDS011;37392;50.964;6.952;2022-10-31T08:24:34;20.50;;;10.05;;
51304;SDS011;37392;50.964;6.952;2022-10-31T08:26:59;32.47;;;9.40;;
51304;SDS011;37392;50.964;6.952;2022-10-31T08:29:25;21.27;;;8.95;;
51304;SDS011;37392;50.964;6.952;2022-10-31T08:31:50;27.50;;;9.52;;
51304;SDS011;37392;50.964;6.952;2022-10-31T08:34:16;19.10;;;9.43;;
51304;SDS011;37392;50.964;6.952;2022-10-31T08:36:42;24.13;;;8.40;;
51304;SDS011;37392;50.964;6.952;2022-10-31T08:39:09;29.30;;;9.73;;
51304;SDS011;37392;50.964;6.952;2022-10-31T08:41:35;29.80;;;10.35;;
51304;SDS011;37392;50.964;6.952;2022-10-31T08:44:01;22.48;;;8.80;;
51304;SDS011;37392;50.964;6.952;2022-10-31T08:46:26;25.70;;;8.55;;
51304;SDS011;37392;50.964;6.952;2022-10-31T08:48:52;26.95;;;9.57;;
51304;SDS011;37392;50.964;6.952;2022-10-31T08:51:17;21.80;;;8.73;;
51304;SDS011;37392;50.964;6.952;2022-10-31T08:53:43;25.15;;;9.25;;
51304;SDS011;37392;50.964;6.952;2022-10-31T08:56:08;25.98;;;9.40;;
51304;SDS011;37392;50.964;6.952;2022-10-31T08:58:34;16.95;;;8.15;;
51304;SDS011;37392;50.964;6.952;2022-10-31T09:01:00;21.50;;;9.73;;
51304;SDS011;37392;50.964;6.952;2022-10-31T09:03:28;20.30;;;8.90;;
51304;SDS011;37392;50.964;6.952;2022-10-31T09:05:56;20.77;;;10.27;;
51304;SDS011;37392;50.964;6.952;2022-10-31T09:08:24;21.10;;;8.18;;
51304;SDS011;37392;50.964;6.952;2022-10-31T09:10:51;17.60;;;7.70;;
51304;SDS011;37392;50.964;6.952;2022-10-31T09:13:18;14.13;;;8.32;;
51304;SDS011;37392;50.964;6.952;2022-10-31T09:15:48;22.13;;;9.38;;
51304;SDS011;37392;50.964;6.952;2022-10-31T09:18:15;22.17;;;8.95;;
51304;SDS011;37392;50.964;6.952;2022-10-31T09:20:44;25.73;;;7.40;;
51304;SDS011;37392;50.964;6.952;2022-10-31T09:23:16;22.20;;;8.80;;
51304;SDS011;37392;50.964;6.952;2022-10-31T09:25:47;34.22;;;9.13;;
51304;SDS011;37392;50.964;6.952;2022-10-31T09:28:16;37.38;;;8.60;;
51304;SDS011;37392;50.964;6.952;2022-10-31T09:30:46;21.53;;;8.40;;
51304;SDS011;37392;50.964;6.952;2022-10-31T09:33:17;34.08;;;9.90;;
51304;SDS011;37392;50.964;6.952;2022-10-31T09:35:44;25.73;;;8.50;;
51304;SDS011;37392;50.964;6.952;2022-10-31T09:38:14;24.27;;;8.80;;
51304;SDS011;37392;50.964;6.952;2022-10-31T09:40:47;31.80;;;9.35;;
51304;SDS011;37392;50.964;6.952;2022-10-31T09:43:45;20.77;;;8.88;;
51304;SDS011;37392;50.964;6.952;2022-10-31T09:46:37;22.08;;;9.60;;
51304;SDS011;37392;50.964;6.952;2022-10-31T09:52:13;27.23;;;8.73;;
51304;SDS011;37392;50.964;6.952;2022-10-31T09:54:52;24.73;;;9.52;;
51304;SDS011;37392;50.964;6.952;2022-10-31T09:57:27;21.38;;;8.00;;
51304;SDS011;37392;50.964;6.952;2022-10-31T09:59:59;23.70;;;8.95;;
51304;SDS011;37392;50.964;6.952;2022-10-31T10:02:31;14.15;;;8.30;;
51304;SDS011;37392;50.964;6.952;2022-10-31T10:05:11;22.90;;;9.70;;
51304;SDS011;37392;50.964;6.952;2022-10-31T10:35:55;16.08;;;7.07;;
51304;SDS011;37392;50.964;6.952;2022-10-31T10:41:17;21.83;;;8.27;;
51304;SDS011;37392;50.964;6.952;2022-10-31T10:43:49;13.02;;;7.13;;
51304;SDS011;37392;50.964;6.952;2022-10-31T10:46:17;19.25;;;8.35;;
51304;SDS011;37392;50.964;6.952;2022-10-31T10:49:23;25.80;;;7.40;;
51304;SDS011;37392;50.964;6.952;2022-10-31T10:58:24;18.13;;;7.78;;
51304;SDS011;37392;50.964;6.952;2022-10-31T11:00:57;19.13;;;6.80;;
51304;SDS011;37392;50.964;6.952;2022-10-31T11:07:02;19.70;;;7.28;;
51304;SDS011;37392;50.964;6.952;2022-10-31T11:09:34;19.63;;;6.80;;
51304;SDS011;37392;50.964;6.952;2022-10-31T11:12:06;23.13;;;6.85;;
51304;SDS011;37392;50.964;6.952;2022-10-31T11:14:53;24.52;;;6.72;;
51304;SDS011;37392;50.964;6.952;2022-10-31T11:17:34;18.75;;;7.20;;
51304;SDS011;37392;50.964;6.952;2022-10-31T11:22:40;19.63;;;6.68;;
51304;SDS011;37392;50.964;6.952;2022-10-31T11:27:45;21.30;;;7.13;;
51304;SDS011;37392;50.964;6.952;2022-10-31T11:30:12;26.90;;;8.10;;
51304;SDS011;37392;50.964;6.952;2022-10-31T11:32:46;20.85;;;6.93;;
51304;SDS011;37392;50.964;6.952;2022-10-31T11:35:20;19.17;;;8.45;;
51304;SDS011;37392;50.964;6.952;2022-10-31T11:37:48;19.30;;;6.38;;
51304;SDS011;37392;50.964;6.952;2022-10-31T11:40:20;24.80;;;7.95;;
51304;SDS011;37392;50.964;6.952;2022-10-31T11:42:49;30.33;;;8.63;;
51304;SDS011;37392;50.964;6.952;2022-10-31T11:47:49;18.83;;;8.48;;
51304;SDS011;37392;50.964;6.952;2022-10-31T11:50:26;19.90;;;7.03;;
51304;SDS011;37392;50.964;6.952;2022-10-31T11:53:12;20.15;;;5.93;;
51304;SDS011;37392;50.964;6.952;2022-10-31T11:55:45;21.35;;;7.45;;
51304;SDS011;37392;50.964;6.952;2022-10-31T11:58:21;22.48;;;7.50;;
51304;SDS011;37392;50.964;6.952;2022-10-31T12:00:53;26.10;;;8.63;;
51304;SDS011;37392;50.964;6.952;2022-10-31T12:06:33;17.77;;;8.23;;
51304;SDS011;37392;50.964;6.952;2022-10-31T12:09:02;29.60;;;6.13;;
51304;SDS011;37392;50.964;6.952;2022-10-31T12:29:25;20.52;;;6.38;;
51304;SDS011;37392;50.964;6.952;2022-10-31T12:32:47;19.10;;;10.25;;
51304;SDS011;37392;50.964;6.952;2022-10-31T12:41:52;9.82;;;4.75;;
51304;SDS011;37392;50.964;6.952;2022-10-31T12:44:24;19.90;;;6.15;;
51304;SDS011;37392;50.964;6.952;2022-10-31T12:47:37;17.05;;;5.57;;
51304;SDS011;37392;50.964;6.952;2022-10-31T12:56:53;15.55;;;4.60;;
51304;SDS011;37392;50.964;6.952;2022-10-31T12:59:32;25.47;;;6.63;;
51304;SDS011;37392;50.964;6.952;2022-10-31T13:02:12;20.70;;;5.32;;
51304;SDS011;37392;50.964;6.952;2022-10-31T13:04:51;26.63;;;5.10;;
51304;SDS011;37392;50.964;6.952;2022-10-31T13:12:49;21.27;;;5.65;;
51304;SDS011;37392;50.964;6.952;2022-10-31T13:15:25;21.25;;;6.00;;
51304;SDS011;37392;50.964;6.952;2022-10-31T13:17:55;18.08;;;7.03;;
51304;SDS011;37392;50.964;6.952;2022-10-31T13:20:27;21.48;;;6.18;;
51304;SDS011;37392;50.964;6.952;2022-10-31T13:25:53;26.27;;;5.78;;
51304;SDS011;37392;50.964;6.952;2022-10-31T13:31:08;20.92;;;5.20;;
51304;SDS011;37392;50.964;6.952;2022-10-31T13:33:34;19.35;;;6.60;;
51304;SDS011;37392;50.964;6.952;2022-10-31T13:36:28;27.65;;;12.43;;
51304;SDS011;37392;50.964;6.952;2022-10-31T13:42:11;11.90;;;4.72;;
51304;SDS011;37392;50.964;6.952;2022-10-31T13:44:48;14.75;;;4.70;;
51304;SDS011;37392;50.964;6.952;2022-10-31T13:47:23;14.93;;;5.13;;
51304;SDS011;37392;50.964;6.952;2022-10-31T13:49:51;21.23;;;6.18;;
51304;SDS011;37392;50.964;6.952;2022-10-31T13:52:24;30.05;;;4.82;;
51304;SDS011;37392;50.964;6.952;2022-10-31T13:54:51;29.58;;;6.35;;
51304;SDS011;37392;50.964;6.952;2022-10-31T14:02:47;19.50;;;5.63;;
51304;SDS011;37392;50.964;6.952;2022-10-31T14:05:29;18.63;;;5.00;;
51304;SDS011;37392;50.964;6.952;2022-10-31T14:07:58;23.73;;;5.13;;
51304;SDS011;37392;50.964;6.952;2022-10-31T14:10:27;18.45;;;5.40;;
51304;SDS011;37392;50.964;6.952;2022-10-31T14:16:27;23.13;;;5.95;;
51304;SDS011;37392;50.964;6.952;2022-10-31T14:19:15;18.63;;;5.80;;
51304;SDS011;37392;50.964;6.952;2022-10-31T14:21:46;21.13;;;5.70;;
51304;SDS011;37392;50.964;6.952;2022-10-31T14:26:56;16.08;;;5.18;;
51304;SDS011;37392;50.964;6.952;2022-10-31T14:29:46;14.38;;;5.22;;
51304;SDS011;37392;50.964;6.952;2022-10-31T14:37:14;18.23;;;6.70;;
51304;SDS011;37392;50.964;6.952;2022-10-31T14:51:39;24.15;;;5.03;;
51304;SDS011;37392;50.964;6.952;2022-10-31T14:54:14;21.70;;;5.63;;
51304;SDS011;37392;50.964;6.952;2022-10-31T14:57:04;26.15;;;5.70;;
51304;SDS011;37392;50.964;6.952;2022-10-31T14:59:37;20.25;;;5.07;;
51304;SDS011;37392;50.964;6.952;2022-10-31T15:02:14;29.65;;;8.70;;
51304;SDS011;37392;50.964;6.952;2022-10-31T15:04:51;31.17;;;5.45;;
51304;SDS011;37392;50.964;6.952;2022-10-31T15:07:23;30.55;;;6.00;;
51304;SDS011;37392;50.964;6.952;2022-10-31T15:09:57;21.55;;;6.32;;
51304;SDS011;37392;50.964;6.952;2022-10-31T15:18:00;17.73;;;5.50;;
51304;SDS011;37392;50.964;6.952;2022-10-31T15:20:31;22.25;;;6.78;;
51304;SDS011;37392;50.964;6.952;2022-10-31T15:23:09;24.33;;;5.47;;
51304;SDS011;37392;50.964;6.952;2022-10-31T15:25:42;20.15;;;5.78;;
51304;SDS011;37392;50.964;6.952;2022-10-31T15:28:14;20.70;;;4.78;;
51304;SDS011;37392;50.964;6.952;2022-10-31T15:30:57;12.63;;;4.70;;
51304;SDS011;37392;50.964;6.952;2022-10-31T15:33:27;29.73;;;12.43;;
51304;SDS011;37392;50.964;6.952;2022-10-31T15:35:57;21.23;;;6.80;;
51304;SDS011;37392;50.964;6.952;2022-10-31T15:38:25;13.57;;;5.07;;
51304;SDS011;37392;50.964;6.952;2022-10-31T15:41:02;20.15;;;5.90;;
51304;SDS011;37392;50.964;6.952;2022-10-31T15:43:33;21.88;;;5.22;;
51304;SDS011;37392;50.964;6.952;2022-10-31T15:46:02;24.40;;;4.10;;
51304;SDS011;37392;50.964;6.952;2022-10-31T15:48:29;23.08;;;4.63;;
51304;SDS011;37392;50.964;6.952;2022-10-31T15:50:59;13.13;;;4.22;;
51304;SDS011;37392;50.964;6.952;2022-10-31T15:53:33;27.15;;;5.85;;
51304;SDS011;37392;50.964;6.952;2022-10-31T15:56:19;20.45;;;4.82;;
51304;SDS011;37392;50.964;6.952;2022-10-31T15:58:50;21.33;;;5.50;;
51304;SDS011;37392;50.964;6.952;2022-10-31T16:06:26;22.40;;;5.25;;
51304;SDS011;37392;50.964;6.952;2022-10-31T16:08:52;15.98;;;5.20;;
51304;SDS011;37392;50.964;6.952;2022-10-31T16:14:04;15.32;;;4.82;;
51304;SDS011;37392;50.964;6.952;2022-10-31T16:16:45;23.38;;;4.88;;
51304;SDS011;37392;50.964;6.952;2022-10-31T16:19:19;20.42;;;4.90;;
51304;SDS011;37392;50.964;6.952;2022-10-31T16:22:09;26.92;;;4.80;;
51304;SDS011;37392;50.964;6.952;2022-10-31T16:25:01;21.58;;;5.22;;
51304;SDS011;37392;50.964;6.952;2022-10-31T16:27:39;30.90;;;4.38;;
51304;SDS011;37392;50.964;6.952;2022-10-31T16:30:27;21.65;;;5.53;;
51304;SDS011;37392;50.964;6.952;2022-10-31T16:36:13;21.67;;;5.78;;
51304;SDS011;37392;50.964;6.952;2022-10-31T16:38:52;25.45;;;5.93;;
51304;SDS011;37392;50.964;6.952;2022-10-31T16:41:19;16.13;;;5.38;;
51304;SDS011;37392;50.964;6.952;2022-10-31T16:43:49;13.15;;;5.25;;
51304;SDS011;37392;50.964;6.952;2022-10-31T16:46:18;10.23;;;4.35;;
51304;SDS011;37392;50.964;6.952;2022-10-31T16:48:52;23.73;;;6.10;;
51304;SDS011;37392;50.964;6.952;2022-10-31T16:51:19;18.90;;;5.28;;
51304;SDS011;37392;50.964;6.952;2022-10-31T16:53:45;19.75;;;5.50;;
51304;SDS011;37392;50.964;6.952;2022-10-31T16:56:14;19.40;;;5.40;;
51304;SDS011;37392;50.964;6.952;2022-10-31T16:58:43;20.67;;;5.63;;
51304;SDS011;37392;50.964;6.952;2022-10-31T17:01:09;23.60;;;5.25;;
51304;SDS011;37392;50.964;6.952;2022-10-31T17:03:39;18.15;;;5.28;;
51304;SDS011;37392;50.964;6.952;2022-10-31T17:06:05;22.95;;;5.20;;
51304;SDS011;37392;50.964;6.952;2022-10-31T17:08:30;21.50;;;6.32;;
51304;SDS011;37392;50.964;6.952;2022-10-31T17:10:57;19.90;;;5.47;;
51304;SDS011;37392;50.964;6.952;2022-10-31T17:13:27;26.13;;;5.80;;
51304;SDS011;37392;50.964;6.952;2022-10-31T17:15:57;23.20;;;5.75;;
51304;SDS011;37392;50.964;6.952;2022-10-31T17:18:24;15.02;;;5.97;;
51304;SDS011;37392;50.964;6.952;2022-10-31T17:20:51;14.63;;;4.18;;
51304;SDS011;37392;50.964;6.952;2022-10-31T17:23:23;16.23;;;5.05;;
51304;SDS011;37392;50.964;6.952;2022-10-31T17:25:48;22.20;;;5.85;;
51304;SDS011;37392;50.964;6.952;2022-10-31T17:28:14;19.65;;;5.38;;
51304;SDS011;37392;50.964;6.952;2022-10-31T17:30:40;13.95;;;4.97;;
51304;SDS011;37392;50.964;6.952;2022-10-31T17:33:14;24.02;;;7.13;;
51304;SDS011;37392;50.964;6.952;2022-10-31T17:35:44;25.92;;;7.32;;
51304;SDS011;37392;50.964;6.952;2022-10-31T17:38:10;25.80;;;5.25;;
51304;SDS011;37392;50.964;6.952;2022-10-31T17:40:36;15.65;;;5.43;;
51304;SDS011;37392;50.964;6.952;2022-10-31T17:43:04;26.10;;;5.55;;
51304;SDS011;37392;50.964;6.952;2022-10-31T17:45:30;21.02;;;6.05;;
51304;SDS011;37392;50.964;6.952;2022-10-31T17:47:58;14.38;;;5.28;;